sensor_id;sensor_type;location;lat;lon;timestamp;P1;durP1;ratioP1;P2;durP2;ratioP2
41466;SDS011;27205;53.690;19.948;2022-11-20T00:04:27;13.00;;;12.10;;
41466;SDS011;27205;53.690;19.948;2022-11-20T00:09:31;12.30;;;11.50;;
41466;SDS011;27205;53.690;19.948;2022-11-20T00:14:34;11.50;;;10.80;;
41466;SDS011;27205;53.690;19.948;2022-11-20T00:19:38;11.00;;;10.30;;
41466;SDS011;27205;53.690;19.948;2022-11-20T00:24:41;12.70;;;11.80;;
41466;SDS011;27205;53.690;19.948;2022-11-20T00:29:45;11.50;;;10.70;;
41466;SDS011;27205;53.690;19.948;2022-11-20T00:34:48;12.20;;;11.40;;
41466;SDS011;27205;53.690;19.948;2022-11-20T00:39:52;13.90;;;12.80;;
41466;SDS011;27205;53.690;19.948;2022-11-20T00:44:55;12.50;;;11.70;;
41466;SDS011;27205;53.690;19.948;2022-11-20T00:49:59;11.50;;;10.70;;
41466;SDS011;27205;53.690;19.948;2022-11-20T00:55:02;13.10;;;12.20;;
41466;SDS011;27205;53.690;19.948;2022-11-20T01:00:06;12.60;;;11.70;;
41466;SDS011;27205;53.690;19.948;2022-11-20T01:05:10;12.70;;;11.70;;
41466;SDS011;27205;53.690;19.948;2022-11-20T01:10:14;10.40;;;9.70;;
41466;SDS011;27205;53.690;19.948;2022-11-20T01:15:17;11.80;;;11.00;;
41466;SDS011;27205;53.690;19.948;2022-11-20T01:20:21;13.70;;;12.80;;
41466;SDS011;27205;53.690;19.948;2022-11-20T01:25:24;13.80;;;12.80;;
41466;SDS011;27205;53.690;19.948;2022-11-20T01:30:28;12.50;;;11.60;;
41466;SDS011;27205;53.690;19.948;2022-11-20T01:35:31;11.60;;;10.80;;
41466;SDS011;27205;53.690;19.948;2022-11-20T01:40:35;10.30;;;9.60;;
41466;SDS011;27205;53.690;19.948;2022-11-20T01:51:03;12.80;;;11.90;;
41466;SDS011;27205;53.690;19.948;2022-11-20T01:56:10;13.70;;;12.80;;
41466;SDS011;27205;53.690;19.948;2022-11-20T02:01:16;12.40;;;11.60;;
41466;SDS011;27205;53.690;19.948;2022-11-20T02:06:30;12.30;;;11.50;;
41466;SDS011;27205;53.690;19.948;2022-11-20T02:11:38;13.20;;;12.30;;
41466;SDS011;27205;53.690;19.948;2022-11-20T02:16:46;14.10;;;13.10;;
41466;SDS011;27205;53.690;19.948;2022-11-20T02:27:09;14.00;;;12.90;;
41466;SDS011;27205;53.690;19.948;2022-11-20T02:32:21;12.50;;;11.60;;
41466;SDS011;27205;53.690;19.948;2022-11-20T02:37:29;13.10;;;12.20;;
41466;SDS011;27205;53.690;19.948;2022-11-20T02:42:35;13.90;;;13.00;;
41466;SDS011;27205;53.690;19.948;2022-11-20T02:47:40;13.60;;;12.60;;
41466;SDS011;27205;53.690;19.948;2022-11-20T02:52:43;13.20;;;12.30;;
41466;SDS011;27205;53.690;19.948;2022-11-20T02:57:46;12.00;;;11.10;;
41466;SDS011;27205;53.690;19.948;2022-11-20T03:02:50;13.10;;;12.20;;
41466;SDS011;27205;53.690;19.948;2022-11-20T03:07:53;14.30;;;13.30;;
41466;SDS011;27205;53.690;19.948;2022-11-20T03:12:57;14.00;;;13.10;;
41466;SDS011;27205;53.690;19.948;2022-11-20T03:18:00;12.50;;;11.70;;
41466;SDS011;27205;53.690;19.948;2022-11-20T03:23:04;13.40;;;12.40;;
41466;SDS011;27205;53.690;19.948;2022-11-20T03:28:08;12.80;;;12.00;;
41466;SDS011;27205;53.690;19.948;2022-11-20T03:33:11;13.70;;;12.70;;
41466;SDS011;27205;53.690;19.948;2022-11-20T03:38:15;13.40;;;12.50;;
41466;SDS011;27205;53.690;19.948;2022-11-20T03:43:18;14.20;;;13.20;;
41466;SDS011;27205;53.690;19.948;2022-11-20T03:48:22;12.60;;;11.80;;
41466;SDS011;27205;53.690;19.948;2022-11-20T03:53:25;13.60;;;12.70;;
41466;SDS011;27205;53.690;19.948;2022-11-20T03:58:29;13.20;;;12.30;;
41466;SDS011;27205;53.690;19.948;2022-11-20T04:03:33;12.80;;;11.90;;
41466;SDS011;27205;53.690;19.948;2022-11-20T04:08:37;12.80;;;11.90;;
41466;SDS011;27205;53.690;19.948;2022-11-20T04:13:41;15.00;;;13.90;;
41466;SDS011;27205;53.690;19.948;2022-11-20T04:18:46;15.00;;;14.00;;
41466;SDS011;27205;53.690;19.948;2022-11-20T04:23:50;14.20;;;13.30;;
41466;SDS011;27205;53.690;19.948;2022-11-20T04:28:55;13.40;;;12.50;;
41466;SDS011;27205;53.690;19.948;2022-11-20T04:34:04;14.70;;;13.70;;
41466;SDS011;27205;53.690;19.948;2022-11-20T04:39:11;15.00;;;14.00;;
41466;SDS011;27205;53.690;19.948;2022-11-20T04:44:16;14.10;;;13.10;;
41466;SDS011;27205;53.690;19.948;2022-11-20T04:49:19;14.00;;;13.10;;
41466;SDS011;27205;53.690;19.948;2022-11-20T04:54:23;14.70;;;13.70;;
41466;SDS011;27205;53.690;19.948;2022-11-20T04:59:26;10.60;;;10.00;;
41466;SDS011;27205;53.690;19.948;2022-11-20T05:04:30;14.70;;;13.80;;
41466;SDS011;27205;53.690;19.948;2022-11-20T05:09:34;13.20;;;12.40;;
41466;SDS011;27205;53.690;19.948;2022-11-20T05:14:37;10.20;;;9.50;;
41466;SDS011;27205;53.690;19.948;2022-11-20T05:19:41;14.00;;;13.10;;
41466;SDS011;27205;53.690;19.948;2022-11-20T05:24:44;16.00;;;14.90;;
41466;SDS011;27205;53.690;19.948;2022-11-20T05:29:48;15.30;;;14.30;;
41466;SDS011;27205;53.690;19.948;2022-11-20T05:34:52;13.20;;;12.30;;
41466;SDS011;27205;53.690;19.948;2022-11-20T05:39:55;15.00;;;14.00;;
41466;SDS011;27205;53.690;19.948;2022-11-20T05:45:00;16.90;;;15.80;;
41466;SDS011;27205;53.690;19.948;2022-11-20T05:50:05;15.50;;;14.50;;
41466;SDS011;27205;53.690;19.948;2022-11-20T05:55:11;16.60;;;15.50;;
41466;SDS011;27205;53.690;19.948;2022-11-20T06:00:15;15.80;;;14.70;;
41466;SDS011;27205;53.690;19.948;2022-11-20T06:05:19;14.20;;;13.30;;
41466;SDS011;27205;53.690;19.948;2022-11-20T06:10:23;16.50;;;15.40;;
41466;SDS011;27205;53.690;19.948;2022-11-20T06:15:26;18.80;;;17.40;;
41466;SDS011;27205;53.690;19.948;2022-11-20T06:20:31;15.20;;;14.10;;
41466;SDS011;27205;53.690;19.948;2022-11-20T06:25:41;17.00;;;15.80;;
41466;SDS011;27205;53.690;19.948;2022-11-20T06:30:45;18.40;;;17.10;;
41466;SDS011;27205;53.690;19.948;2022-11-20T06:35:49;17.60;;;16.40;;
41466;SDS011;27205;53.690;19.948;2022-11-20T06:40:58;17.00;;;15.90;;
41466;SDS011;27205;53.690;19.948;2022-11-20T06:46:02;17.00;;;15.90;;
41466;SDS011;27205;53.690;19.948;2022-11-20T06:51:08;18.30;;;17.00;;
41466;SDS011;27205;53.690;19.948;2022-11-20T06:56:12;16.10;;;15.00;;
41466;SDS011;27205;53.690;19.948;2022-11-20T07:01:16;16.70;;;15.50;;
41466;SDS011;27205;53.690;19.948;2022-11-20T07:06:20;16.50;;;15.40;;
41466;SDS011;27205;53.690;19.948;2022-11-20T07:11:24;16.50;;;15.40;;
41466;SDS011;27205;53.690;19.948;2022-11-20T07:16:27;18.30;;;17.10;;
41466;SDS011;27205;53.690;19.948;2022-11-20T07:21:31;18.50;;;17.20;;
41466;SDS011;27205;53.690;19.948;2022-11-20T07:26:34;19.10;;;17.70;;
41466;SDS011;27205;53.690;19.948;2022-11-20T07:31:38;19.70;;;18.30;;
41466;SDS011;27205;53.690;19.948;2022-11-20T07:36:42;16.00;;;14.60;;
41466;SDS011;27205;53.690;19.948;2022-11-20T07:41:45;18.20;;;16.90;;
41466;SDS011;27205;53.690;19.948;2022-11-20T07:46:48;19.50;;;18.20;;
41466;SDS011;27205;53.690;19.948;2022-11-20T07:51:52;15.40;;;14.40;;
41466;SDS011;27205;53.690;19.948;2022-11-20T07:57:06;20.00;;;18.70;;
41466;SDS011;27205;53.690;19.948;2022-11-20T08:02:10;20.00;;;18.70;;
41466;SDS011;27205;53.690;19.948;2022-11-20T08:07:14;21.00;;;19.50;;
41466;SDS011;27205;53.690;19.948;2022-11-20T08:12:18;21.10;;;19.60;;
41466;SDS011;27205;53.690;19.948;2022-11-20T08:17:41;21.40;;;20.00;;
41466;SDS011;27205;53.690;19.948;2022-11-20T08:23:06;20.20;;;18.80;;
41466;SDS011;27205;53.690;19.948;2022-11-20T08:28:10;21.20;;;19.80;;
41466;SDS011;27205;53.690;19.948;2022-11-20T08:33:22;21.40;;;19.90;;
41466;SDS011;27205;53.690;19.948;2022-11-20T08:38:26;16.90;;;15.70;;
41466;SDS011;27205;53.690;19.948;2022-11-20T08:43:29;21.10;;;19.70;;
41466;SDS011;27205;53.690;19.948;2022-11-20T08:48:33;22.80;;;21.30;;
41466;SDS011;27205;53.690;19.948;2022-11-20T08:53:36;21.50;;;20.00;;
41466;SDS011;27205;53.690;19.948;2022-11-20T08:58:40;17.50;;;16.30;;
41466;SDS011;27205;53.690;19.948;2022-11-20T09:04:04;24.30;;;22.50;;
41466;SDS011;27205;53.690;19.948;2022-11-20T09:09:08;22.60;;;21.10;;
41466;SDS011;27205;53.690;19.948;2022-11-20T09:14:11;21.50;;;20.00;;
41466;SDS011;27205;53.690;19.948;2022-11-20T09:19:15;24.90;;;23.20;;
41466;SDS011;27205;53.690;19.948;2022-11-20T09:24:38;24.00;;;22.30;;
41466;SDS011;27205;53.690;19.948;2022-11-20T09:29:42;23.60;;;22.00;;
41466;SDS011;27205;53.690;19.948;2022-11-20T09:34:45;23.00;;;21.40;;
41466;SDS011;27205;53.690;19.948;2022-11-20T09:39:49;23.50;;;21.90;;
41466;SDS011;27205;53.690;19.948;2022-11-20T09:45:09;24.50;;;22.90;;
41466;SDS011;27205;53.690;19.948;2022-11-20T09:55:55;26.20;;;24.40;;
41466;SDS011;27205;53.690;19.948;2022-11-20T10:01:00;24.20;;;22.60;;
41466;SDS011;27205;53.690;19.948;2022-11-20T10:06:15;24.00;;;22.40;;
41466;SDS011;27205;53.690;19.948;2022-11-20T10:11:46;25.00;;;23.40;;
41466;SDS011;27205;53.690;19.948;2022-11-20T10:22:47;23.40;;;21.80;;
41466;SDS011;27205;53.690;19.948;2022-11-20T10:33:04;23.70;;;22.10;;
41466;SDS011;27205;53.690;19.948;2022-11-20T10:38:24;22.60;;;21.10;;
41466;SDS011;27205;53.690;19.948;2022-11-20T10:43:34;22.00;;;20.40;;
41466;SDS011;27205;53.690;19.948;2022-11-20T10:48:38;21.60;;;20.10;;
41466;SDS011;27205;53.690;19.948;2022-11-20T10:59:23;22.00;;;20.60;;
41466;SDS011;27205;53.690;19.948;2022-11-20T11:04:44;24.40;;;22.70;;
41466;SDS011;27205;53.690;19.948;2022-11-20T11:09:52;25.40;;;23.70;;
41466;SDS011;27205;53.690;19.948;2022-11-20T11:14:57;24.80;;;23.10;;
41466;SDS011;27205;53.690;19.948;2022-11-20T11:25:21;27.70;;;25.80;;
41466;SDS011;27205;53.690;19.948;2022-11-20T11:30:27;26.80;;;24.90;;
41466;SDS011;27205;53.690;19.948;2022-11-20T11:35:33;28.60;;;26.70;;
41466;SDS011;27205;53.690;19.948;2022-11-20T11:40:41;28.50;;;26.50;;
41466;SDS011;27205;53.690;19.948;2022-11-20T11:45:51;30.60;;;28.50;;
41466;SDS011;27205;53.690;19.948;2022-11-20T11:50:56;30.40;;;28.30;;
41466;SDS011;27205;53.690;19.948;2022-11-20T11:56:09;28.20;;;26.30;;
41466;SDS011;27205;53.690;19.948;2022-11-20T12:01:21;27.50;;;25.60;;
41466;SDS011;27205;53.690;19.948;2022-11-20T12:06:36;31.80;;;29.70;;
41466;SDS011;27205;53.690;19.948;2022-11-20T12:11:53;27.60;;;25.70;;
41466;SDS011;27205;53.690;19.948;2022-11-20T12:17:02;31.90;;;29.60;;
41466;SDS011;27205;53.690;19.948;2022-11-20T12:22:10;31.40;;;29.20;;
41466;SDS011;27205;53.690;19.948;2022-11-20T12:43:20;30.20;;;28.10;;
41466;SDS011;27205;53.690;19.948;2022-11-20T13:21:23;22.70;;;21.10;;
41466;SDS011;27205;53.690;19.948;2022-11-20T13:26:39;22.00;;;20.50;;
41466;SDS011;27205;53.690;19.948;2022-11-20T13:31:45;23.60;;;21.90;;
41466;SDS011;27205;53.690;19.948;2022-11-20T13:36:50;18.80;;;17.50;;
41466;SDS011;27205;53.690;19.948;2022-11-20T13:41:59;20.00;;;18.50;;
41466;SDS011;27205;53.690;19.948;2022-11-20T13:47:17;21.70;;;20.10;;
41466;SDS011;27205;53.690;19.948;2022-11-20T13:57:54;20.70;;;19.30;;
41466;SDS011;27205;53.690;19.948;2022-11-20T14:08:12;20.10;;;18.70;;
41466;SDS011;27205;53.690;19.948;2022-11-20T14:13:21;20.40;;;18.80;;
41466;SDS011;27205;53.690;19.948;2022-11-20T14:18:25;19.00;;;17.70;;
41466;SDS011;27205;53.690;19.948;2022-11-20T14:23:30;20.10;;;18.60;;
41466;SDS011;27205;53.690;19.948;2022-11-20T14:28:33;19.30;;;17.80;;
41466;SDS011;27205;53.690;19.948;2022-11-20T14:33:37;20.60;;;19.20;;
41466;SDS011;27205;53.690;19.948;2022-11-20T14:38:41;14.90;;;13.80;;
41466;SDS011;27205;53.690;19.948;2022-11-20T14:43:46;18.50;;;17.20;;
41466;SDS011;27205;53.690;19.948;2022-11-20T14:48:57;19.00;;;17.70;;
41466;SDS011;27205;53.690;19.948;2022-11-20T14:59:27;18.60;;;17.30;;
41466;SDS011;27205;53.690;19.948;2022-11-20T15:04:32;21.30;;;19.80;;
41466;SDS011;27205;53.690;19.948;2022-11-20T15:09:36;13.10;;;12.20;;
41466;SDS011;27205;53.690;19.948;2022-11-20T15:14:39;19.00;;;17.70;;
41466;SDS011;27205;53.690;19.948;2022-11-20T15:19:42;18.90;;;17.60;;
41466;SDS011;27205;53.690;19.948;2022-11-20T15:24:46;21.80;;;20.20;;
41466;SDS011;27205;53.690;19.948;2022-11-20T15:29:49;23.20;;;21.50;;
41466;SDS011;27205;53.690;19.948;2022-11-20T15:34:53;24.70;;;23.00;;
41466;SDS011;27205;53.690;19.948;2022-11-20T15:39:56;21.00;;;19.40;;
41466;SDS011;27205;53.690;19.948;2022-11-20T15:45:00;24.00;;;22.10;;
41466;SDS011;27205;53.690;19.948;2022-11-20T15:50:05;21.40;;;19.90;;
41466;SDS011;27205;53.690;19.948;2022-11-20T15:55:18;19.20;;;17.90;;
41466;SDS011;27205;53.690;19.948;2022-11-20T16:00:22;24.90;;;23.10;;
41466;SDS011;27205;53.690;19.948;2022-11-20T16:05:28;24.30;;;22.50;;
41466;SDS011;27205;53.690;19.948;2022-11-20T16:10:33;18.00;;;16.80;;
41466;SDS011;27205;53.690;19.948;2022-11-20T16:15:36;17.90;;;16.60;;
41466;SDS011;27205;53.690;19.948;2022-11-20T16:20:50;21.50;;;19.80;;
41466;SDS011;27205;53.690;19.948;2022-11-20T16:25:55;19.80;;;18.40;;
41466;SDS011;27205;53.690;19.948;2022-11-20T16:31:07;17.20;;;15.90;;
41466;SDS011;27205;53.690;19.948;2022-11-20T16:36:12;25.20;;;23.30;;
41466;SDS011;27205;53.690;19.948;2022-11-20T16:41:17;19.50;;;17.90;;
41466;SDS011;27205;53.690;19.948;2022-11-20T16:46:21;20.40;;;19.00;;
41466;SDS011;27205;53.690;19.948;2022-11-20T16:56:30;16.40;;;15.20;;
41466;SDS011;27205;53.690;19.948;2022-11-20T17:01:34;22.00;;;20.30;;
41466;SDS011;27205;53.690;19.948;2022-11-20T17:06:41;20.90;;;19.40;;
41466;SDS011;27205;53.690;19.948;2022-11-20T17:11:49;18.80;;;17.50;;
41466;SDS011;27205;53.690;19.948;2022-11-20T17:16:53;21.20;;;19.70;;
41466;SDS011;27205;53.690;19.948;2022-11-20T17:21:56;19.20;;;17.80;;
41466;SDS011;27205;53.690;19.948;2022-11-20T17:27:00;21.40;;;20.00;;
41466;SDS011;27205;53.690;19.948;2022-11-20T17:32:04;21.80;;;20.30;;
41466;SDS011;27205;53.690;19.948;2022-11-20T17:37:08;23.90;;;22.20;;
41466;SDS011;27205;53.690;19.948;2022-11-20T17:42:11;22.30;;;20.80;;
41466;SDS011;27205;53.690;19.948;2022-11-20T17:47:33;23.40;;;21.80;;
41466;SDS011;27205;53.690;19.948;2022-11-20T17:52:38;25.30;;;23.60;;
41466;SDS011;27205;53.690;19.948;2022-11-20T17:57:41;23.60;;;22.00;;
41466;SDS011;27205;53.690;19.948;2022-11-20T18:02:59;23.70;;;22.10;;
41466;SDS011;27205;53.690;19.948;2022-11-20T18:08:02;24.90;;;23.10;;
41466;SDS011;27205;53.690;19.948;2022-11-20T18:13:06;24.40;;;22.70;;
41466;SDS011;27205;53.690;19.948;2022-11-20T18:18:09;25.00;;;23.20;;
41466;SDS011;27205;53.690;19.948;2022-11-20T18:23:13;22.60;;;21.00;;
41466;SDS011;27205;53.690;19.948;2022-11-20T18:28:16;25.90;;;23.80;;
41466;SDS011;27205;53.690;19.948;2022-11-20T18:33:21;22.50;;;21.00;;
41466;SDS011;27205;53.690;19.948;2022-11-20T18:38:30;26.40;;;24.60;;
41466;SDS011;27205;53.690;19.948;2022-11-20T18:43:33;25.10;;;23.40;;
41466;SDS011;27205;53.690;19.948;2022-11-20T18:48:55;24.80;;;23.00;;
41466;SDS011;27205;53.690;19.948;2022-11-20T18:53:59;24.00;;;22.40;;
41466;SDS011;27205;53.690;19.948;2022-11-20T18:59:03;24.30;;;22.60;;
41466;SDS011;27205;53.690;19.948;2022-11-20T19:04:11;23.80;;;22.10;;
41466;SDS011;27205;53.690;19.948;2022-11-20T19:09:16;23.70;;;22.00;;
41466;SDS011;27205;53.690;19.948;2022-11-20T19:14:20;25.50;;;23.70;;
41466;SDS011;27205;53.690;19.948;2022-11-20T19:19:23;26.40;;;24.50;;
41466;SDS011;27205;53.690;19.948;2022-11-20T19:24:28;26.10;;;24.20;;
41466;SDS011;27205;53.690;19.948;2022-11-20T19:29:32;27.50;;;25.60;;
41466;SDS011;27205;53.690;19.948;2022-11-20T19:34:36;27.00;;;25.00;;
41466;SDS011;27205;53.690;19.948;2022-11-20T19:39:39;21.00;;;19.60;;
41466;SDS011;27205;53.690;19.948;2022-11-20T19:44:42;24.90;;;23.10;;
41466;SDS011;27205;53.690;19.948;2022-11-20T19:49:46;26.00;;;24.20;;
41466;SDS011;27205;53.690;19.948;2022-11-20T19:54:49;24.10;;;22.40;;
41466;SDS011;27205;53.690;19.948;2022-11-20T19:59:53;19.50;;;18.20;;
41466;SDS011;27205;53.690;19.948;2022-11-20T20:04:57;26.50;;;24.50;;
41466;SDS011;27205;53.690;19.948;2022-11-20T20:10:00;25.10;;;23.40;;
41466;SDS011;27205;53.690;19.948;2022-11-20T20:15:04;24.10;;;22.40;;
41466;SDS011;27205;53.690;19.948;2022-11-20T20:20:08;26.30;;;24.50;;
41466;SDS011;27205;53.690;19.948;2022-11-20T20:25:13;27.70;;;25.70;;
41466;SDS011;27205;53.690;19.948;2022-11-20T20:30:16;26.30;;;24.40;;
41466;SDS011;27205;53.690;19.948;2022-11-20T20:35:20;25.30;;;23.60;;
41466;SDS011;27205;53.690;19.948;2022-11-20T20:40:23;27.10;;;25.30;;
41466;SDS011;27205;53.690;19.948;2022-11-20T20:45:27;28.40;;;26.40;;
41466;SDS011;27205;53.690;19.948;2022-11-20T20:50:31;26.90;;;25.00;;
41466;SDS011;27205;53.690;19.948;2022-11-20T20:55:34;26.40;;;24.50;;
41466;SDS011;27205;53.690;19.948;2022-11-20T21:00:38;28.40;;;26.30;;
41466;SDS011;27205;53.690;19.948;2022-11-20T21:05:41;26.10;;;24.30;;
41466;SDS011;27205;53.690;19.948;2022-11-20T21:10:45;28.00;;;26.00;;
41466;SDS011;27205;53.690;19.948;2022-11-20T21:15:49;30.40;;;28.20;;
41466;SDS011;27205;53.690;19.948;2022-11-20T21:20:53;25.40;;;23.70;;
41466;SDS011;27205;53.690;19.948;2022-11-20T21:26:16;29.80;;;27.70;;
41466;SDS011;27205;53.690;19.948;2022-11-20T21:31:20;27.90;;;26.00;;
41466;SDS011;27205;53.690;19.948;2022-11-20T21:36:29;27.00;;;25.10;;
41466;SDS011;27205;53.690;19.948;2022-11-20T21:41:33;29.50;;;27.40;;
41466;SDS011;27205;53.690;19.948;2022-11-20T21:46:37;33.70;;;31.30;;
41466;SDS011;27205;53.690;19.948;2022-11-20T21:51:43;31.00;;;28.70;;
41466;SDS011;27205;53.690;19.948;2022-11-20T21:56:47;29.10;;;27.10;;
41466;SDS011;27205;53.690;19.948;2022-11-20T22:01:50;29.30;;;27.20;;
41466;SDS011;27205;53.690;19.948;2022-11-20T22:06:54;29.80;;;27.60;;
41466;SDS011;27205;53.690;19.948;2022-11-20T22:11:57;29.40;;;27.30;;
41466;SDS011;27205;53.690;19.948;2022-11-20T22:17:01;27.40;;;25.50;;
41466;SDS011;27205;53.690;19.948;2022-11-20T22:22:04;26.90;;;25.00;;
41466;SDS011;27205;53.690;19.948;2022-11-20T22:27:09;28.00;;;26.00;;
41466;SDS011;27205;53.690;19.948;2022-11-20T22:32:12;28.00;;;26.00;;
41466;SDS011;27205;53.690;19.948;2022-11-20T22:37:15;27.20;;;25.20;;
41466;SDS011;27205;53.690;19.948;2022-11-20T22:42:19;25.50;;;23.70;;
41466;SDS011;27205;53.690;19.948;2022-11-20T22:47:22;26.70;;;24.80;;
41466;SDS011;27205;53.690;19.948;2022-11-20T22:52:26;28.00;;;26.00;;
41466;SDS011;27205;53.690;19.948;2022-11-20T22:57:30;26.80;;;24.90;;
41466;SDS011;27205;53.690;19.948;2022-11-20T23:02:33;16.60;;;15.50;;
41466;SDS011;27205;53.690;19.948;2022-11-20T23:07:37;26.70;;;24.70;;
41466;SDS011;27205;53.690;19.948;2022-11-20T23:12:43;27.20;;;25.40;;
41466;SDS011;27205;53.690;19.948;2022-11-20T23:17:46;23.80;;;22.20;;
41466;SDS011;27205;53.690;19.948;2022-11-20T23:22:49;27.10;;;25.20;;
41466;SDS011;27205;53.690;19.948;2022-11-20T23:27:53;27.40;;;25.40;;
41466;SDS011;27205;53.690;19.948;2022-11-20T23:32:57;25.40;;;23.60;;
41466;SDS011;27205;53.690;19.948;2022-11-20T23:38:00;25.50;;;23.80;;
41466;SDS011;27205;53.690;19.948;2022-11-20T23:43:04;24.80;;;23.10;;
41466;SDS011;27205;53.690;19.948;2022-11-20T23:48:20;26.00;;;24.10;;
41466;SDS011;27205;53.690;19.948;2022-11-20T23:53:25;26.70;;;24.80;;
